Time;durP1;ratioP1;P1;durP2;ratioP2;P2;SDS_P1;SDS_P2;PMS_P1;PMS_P2;Temp;Humidity;BMP_temperature;BMP_pressure;BME280_temperature;BME280_humidity;BME280_pressure;Samples;Min_cycle;Max_cycle;Signal;HPM_P1;HPM_P2
2022/08/29 00:00:11;;;;;;;9.35;4.70;;;19.90;99.90;;;;;;5073363;28;20288;-88
2022/08/29 00:02:48;;;;;;;9.38;4.50;;;19.90;99.90;;;;;;5073283;28;20243;-87
2022/08/29 00:05:17;;;;;;;5.30;4.57;;;19.90;99.90;;;;;;5072729;28;20229;-88
2022/08/29 00:07:45;;;;;;;5.60;4.75;;;19.80;99.90;;;;;;5073241;28;20279;-88
2022/08/29 00:10:14;;;;;;;6.15;5.05;;;19.80;99.90;;;;;;5073017;28;20231;-88
2022/08/29 00:12:43;;;;;;;6.55;4.75;;;19.80;99.90;;;;;;5072813;28;20313;-84
2022/08/29 00:15:13;;;;;;;6.00;4.80;;;19.90;99.90;;;;;;5073807;28;20265;-84
2022/08/29 00:17:42;;;;;;;5.22;4.82;;;19.80;99.90;;;;;;5073449;28;20308;-83
2022/08/29 00:20:22;;;;;;;5.45;4.95;;;19.80;99.90;;;;;;5073419;28;20287;-84
2022/08/29 00:23:01;;;;;;;6.38;5.20;;;19.80;99.90;;;;;;5073040;28;20217;-84
2022/08/29 00:25:30;;;;;;;5.50;4.95;;;19.90;99.90;;;;;;5073129;28;20260;-84
2022/08/29 00:27:58;;;;;;;4.80;4.40;;;19.90;99.90;;;;;;5073068;28;20201;-84
2022/08/29 00:30:27;;;;;;;4.53;4.18;;;19.80;99.90;;;;;;5072820;28;20250;-84
2022/08/29 00:32:56;;;;;;;5.03;4.65;;;19.80;99.90;;;;;;5073110;28;20247;-84
2022/08/29 00:35:28;;;;;;;5.70;5.15;;;19.80;99.90;;;;;;5073347;28;20209;-84
2022/08/29 00:37:58;;;;;;;9.00;5.55;;;19.80;99.90;;;;;;5073582;28;20247;-83
2022/08/29 00:40:29;;;;;;;4.72;4.32;;;19.80;99.90;;;;;;5088841;28;20212;-82
2022/08/29 00:42:58;;;;;;;5.57;4.63;;;19.80;99.90;;;;;;5085505;28;20217;-83
2022/08/29 00:45:28;;;;;;;5.55;4.90;;;19.80;99.90;;;;;;5074472;28;20292;-84
2022/08/29 00:48:00;;;;;;;7.32;4.30;;;19.90;99.90;;;;;;5073577;28;20250;-84
2022/08/29 00:50:35;;;;;;;4.75;4.30;;;19.80;99.90;;;;;;5073167;28;20273;-84
2022/08/29 00:53:06;;;;;;;7.15;4.15;;;19.80;99.90;;;;;;5073079;28;20303;-84
2022/08/29 00:55:36;;;;;;;6.10;4.82;;;19.70;99.90;;;;;;5073067;28;20291;-84
2022/08/29 00:58:07;;;;;;;6.15;5.15;;;19.70;99.90;;;;;;5072677;28;20308;-83
2022/08/29 01:00:39;;;;;;;6.50;5.35;;;19.70;99.90;;;;;;5072632;28;20211;-83
2022/08/29 01:03:07;;;;;;;5.43;4.63;;;19.70;99.90;;;;;;5072728;28;20236;-83
2022/08/29 01:05:37;;;;;;;6.93;5.07;;;19.70;99.90;;;;;;5072902;28;20285;-84
2022/08/29 01:08:07;;;;;;;6.00;5.15;;;19.70;99.90;;;;;;5072493;28;20205;-83
2022/08/29 01:13:23;;;;;;;5.90;5.25;;;19.60;99.90;;;;;;5072432;28;20311;-84
2022/08/29 01:15:52;;;;;;;5.60;4.78;;;19.60;99.90;;;;;;5073086;28;20201;-84
2022/08/29 01:18:21;;;;;;;8.30;5.22;;;19.60;99.90;;;;;;5076410;28;20233;-83
2022/08/29 01:21:04;;;;;;;5.22;4.72;;;19.60;99.90;;;;;;5076308;28;20268;-83
2022/08/29 01:23:39;;;;;;;6.05;4.85;;;19.60;99.90;;;;;;5076454;28;20204;-83
2022/08/29 01:26:11;;;;;;;4.38;3.97;;;19.60;99.90;;;;;;5076579;28;20243;-85
2022/08/29 01:28:42;;;;;;;4.78;4.38;;;19.60;99.90;;;;;;5076653;28;20260;-83
2022/08/29 01:31:13;;;;;;;5.25;4.82;;;19.60;99.90;;;;;;5076416;28;20261;-83
2022/08/29 01:34:01;;;;;;;5.22;4.72;;;19.60;99.90;;;;;;5076188;28;20209;-84
2022/08/29 01:36:38;;;;;;;8.48;4.88;;;19.60;99.90;;;;;;5076225;28;20283;-83
2022/08/29 01:39:07;;;;;;;5.50;4.78;;;19.60;99.90;;;;;;5076165;28;20295;-84
2022/08/29 01:41:37;;;;;;;5.00;4.53;;;19.60;99.90;;;;;;5076049;28;20228;-84
2022/08/29 01:44:10;;;;;;;5.35;4.88;;;19.60;99.90;;;;;;5076023;28;20296;-84
2022/08/29 01:46:38;;;;;;;4.95;4.53;;;19.60;99.90;;;;;;5076077;28;20311;-85
2022/08/29 01:49:10;;;;;;;4.88;4.45;;;19.50;99.90;;;;;;5076043;28;20284;-85
2022/08/29 01:51:40;;;;;;;5.35;4.70;;;19.50;99.90;;;;;;5075941;28;20296;-83
2022/08/29 01:54:10;;;;;;;5.10;4.60;;;19.60;99.90;;;;;;5075927;28;20268;-83
2022/08/29 01:56:41;;;;;;;5.57;5.07;;;19.50;99.90;;;;;;5075717;28;20289;-84
2022/08/29 01:59:12;;;;;;;7.65;5.05;;;19.50;99.90;;;;;;5075379;28;20224;-83
2022/08/29 02:01:44;;;;;;;5.22;4.72;;;19.50;99.90;;;;;;5075720;28;20279;-83
2022/08/29 02:04:12;;;;;;;8.38;5.63;;;19.50;99.90;;;;;;5075936;28;20215;-84
2022/08/29 02:06:41;;;;;;;4.85;4.45;;;19.60;99.90;;;;;;5075683;28;20205;-84
2022/08/29 02:09:10;;;;;;;4.53;3.90;;;19.50;99.90;;;;;;5075458;28;20228;-83
2022/08/29 02:11:40;;;;;;;6.43;4.50;;;19.50;99.90;;;;;;5075615;28;20233;-84
2022/08/29 02:14:09;;;;;;;5.18;4.72;;;19.50;99.90;;;;;;5075415;28;20229;-84
2022/08/29 02:16:47;;;;;;;5.20;4.80;;;19.50;99.90;;;;;;5075365;28;20217;-83
2022/08/29 02:19:16;;;;;;;6.90;5.15;;;19.50;99.90;;;;;;5075131;28;20270;-83
2022/08/29 02:21:45;;;;;;;4.47;4.07;;;19.60;99.90;;;;;;5075259;28;20313;-83
2022/08/29 02:24:16;;;;;;;14.35;6.47;;;19.50;99.90;;;;;;5075386;28;20288;-83
2022/08/29 02:26:56;;;;;;;7.38;4.55;;;19.50;99.90;;;;;;5075506;28;20205;-84
2022/08/29 02:29:25;;;;;;;4.88;4.38;;;19.60;99.90;;;;;;5073741;28;20296;-84
2022/08/29 02:32:05;;;;;;;5.68;4.45;;;19.60;99.90;;;;;;5075009;28;20319;-84
2022/08/29 02:34:33;;;;;;;5.20;4.10;;;19.60;99.90;;;;;;5075215;28;20212;-83
2022/08/29 02:37:03;;;;;;;19.17;5.25;;;19.50;99.90;;;;;;5075865;28;20213;-83
2022/08/29 02:39:33;;;;;;;5.80;5.30;;;19.60;99.90;;;;;;5076655;28;20217;-84
2022/08/29 02:42:03;;;;;;;6.53;4.78;;;19.50;99.90;;;;;;5076762;28;20255;-83
2022/08/29 02:44:31;;;;;;;8.40;4.85;;;19.50;99.90;;;;;;5076355;28;20260;-84
2022/08/29 02:46:59;;;;;;;5.75;4.57;;;19.40;99.90;;;;;;5074891;28;20208;-83
2022/08/29 02:49:28;;;;;;;5.07;4.60;;;19.50;99.90;;;;;;5075215;28;20216;-84
2022/08/29 02:51:57;;;;;;;4.78;4.28;;;19.50;99.90;;;;;;5074992;28;20323;-84
2022/08/29 02:54:26;;;;;;;7.10;4.97;;;19.40;99.90;;;;;;5074636;28;20205;-83
2022/08/29 02:56:54;;;;;;;7.43;5.18;;;19.40;99.90;;;;;;5074480;28;20288;-84
2022/08/29 02:59:24;;;;;;;6.63;5.47;;;19.50;99.90;;;;;;5074324;28;20312;-83
2022/08/29 03:01:53;;;;;;;5.28;4.78;;;19.50;99.90;;;;;;5074699;28;20280;-84
2022/08/29 03:04:21;;;;;;;5.40;4.57;;;19.50;99.90;;;;;;5074519;28;20264;-83
2022/08/29 03:06:49;;;;;;;5.30;4.75;;;19.50;99.90;;;;;;5074565;28;20376;-84
2022/08/29 03:09:17;;;;;;;5.38;4.75;;;19.50;99.90;;;;;;5074171;28;20201;-83
2022/08/29 03:11:46;;;;;;;4.10;3.80;;;19.50;99.90;;;;;;5074292;28;20229;-84
2022/08/29 03:14:14;;;;;;;5.53;4.47;;;19.50;99.90;;;;;;5074108;28;20201;-83
2022/08/29 03:16:44;;;;;;;6.22;4.70;;;19.40;99.90;;;;;;5074588;28;20216;-84
2022/08/29 03:19:12;;;;;;;9.38;4.40;;;19.40;99.90;;;;;;5074120;28;20235;-84
2022/08/29 03:21:41;;;;;;;7.90;4.15;;;19.40;99.90;;;;;;5074693;28;20309;-83
2022/08/29 03:24:09;;;;;;;5.82;3.80;;;19.40;99.90;;;;;;5074901;28;20293;-83
2022/08/29 03:26:37;;;;;;;5.93;3.90;;;19.40;99.90;;;;;;5074970;28;20305;-84
2022/08/29 03:29:06;;;;;;;9.23;4.65;;;19.40;99.90;;;;;;5074846;28;20283;-84
2022/08/29 03:31:34;;;;;;;6.47;4.35;;;19.50;99.90;;;;;;5074357;28;20236;-83
2022/08/29 03:34:04;;;;;;;5.00;4.38;;;19.50;99.90;;;;;;5073833;28;20213;-84
2022/08/29 03:36:33;;;;;;;4.50;4.10;;;19.50;99.90;;;;;;5074302;28;20276;-84
2022/08/29 03:39:01;;;;;;;8.73;4.57;;;19.50;99.90;;;;;;5073657;28;20307;-84
2022/08/29 03:41:30;;;;;;;4.82;3.67;;;19.50;99.90;;;;;;5074088;28;20217;-83
2022/08/29 03:43:59;;;;;;;3.42;3.08;;;19.50;99.90;;;;;;5073870;28;20228;-83
2022/08/29 03:46:27;;;;;;;5.93;3.40;;;19.50;99.90;;;;;;5073803;28;20209;-83
2022/08/29 03:48:56;;;;;;;5.07;3.70;;;19.50;99.90;;;;;;5073260;28;20234;-83
2022/08/29 03:51:25;;;;;;;4.78;4.25;;;19.50;99.90;;;;;;5073881;28;20229;-83
2022/08/29 03:53:56;;;;;;;8.10;4.13;;;19.50;99.90;;;;;;5073495;28;20204;-82
2022/08/29 03:56:24;;;;;;;4.55;4.15;;;19.50;99.90;;;;;;5073848;28;20247;-82
2022/08/29 03:58:53;;;;;;;4.95;4.35;;;19.50;99.90;;;;;;5073396;28;20215;-83
2022/08/29 04:01:23;;;;;;;5.50;3.92;;;19.50;99.90;;;;;;5073176;28;20229;-83
2022/08/29 04:03:52;;;;;;;4.28;3.85;;;19.50;99.90;;;;;;5073760;28;20201;-83
2022/08/29 04:06:21;;;;;;;3.92;3.63;;;19.50;99.90;;;;;;5089501;28;20233;-83
2022/08/29 04:08:52;;;;;;;5.05;4.57;;;19.40;99.90;;;;;;5089997;28;20288;-83
2022/08/29 04:11:22;;;;;;;4.60;4.07;;;19.50;99.90;;;;;;5073753;28;20320;-83
2022/08/29 04:13:51;;;;;;;5.10;4.63;;;19.50;99.90;;;;;;5073680;28;20205;-83
2022/08/29 04:16:22;;;;;;;5.28;4.47;;;19.40;99.90;;;;;;5073183;28;20247;-83
2022/08/29 04:18:50;;;;;;;4.32;3.92;;;19.50;99.90;;;;;;5073221;28;20209;-83
2022/08/29 04:21:19;;;;;;;4.28;3.88;;;19.50;99.90;;;;;;5072799;28;20235;-83
2022/08/29 04:23:48;;;;;;;8.43;4.63;;;19.40;99.90;;;;;;5073277;28;20253;-83
2022/08/29 04:26:20;;;;;;;4.82;4.15;;;19.50;99.90;;;;;;5072993;28;20272;-84
2022/08/29 04:29:05;;;;;;;4.32;3.88;;;19.50;99.90;;;;;;5073306;28;20224;-84
2022/08/29 04:31:35;;;;;;;5.70;3.97;;;19.50;99.90;;;;;;5073727;28;20225;-84
2022/08/29 04:34:04;;;;;;;9.30;4.15;;;19.50;99.90;;;;;;5073378;28;20270;-84
2022/08/29 04:36:33;;;;;;;5.22;4.47;;;19.40;99.90;;;;;;5073283;28;20211;-83
2022/08/29 04:39:02;;;;;;;3.95;3.58;;;19.50;99.90;;;;;;5073133;28;20200;-84
2022/08/29 04:41:32;;;;;;;5.57;4.57;;;19.40;99.90;;;;;;5072565;28;20224;-84
2022/08/29 04:44:01;;;;;;;3.88;3.10;;;19.50;99.90;;;;;;5072964;28;20211;-84
2022/08/29 04:46:30;;;;;;;4.18;3.65;;;19.50;99.90;;;;;;5072830;28;20241;-84
2022/08/29 04:48:58;;;;;;;7.55;3.88;;;19.50;99.90;;;;;;5072549;28;20213;-84
2022/08/29 04:51:33;;;;;;;11.80;4.50;;;19.60;99.90;;;;;;5072422;28;20225;-83
2022/08/29 04:54:02;;;;;;;5.00;3.85;;;19.50;99.90;;;;;;5072427;28;20212;-84
2022/08/29 04:56:34;;;;;;;14.07;4.00;;;19.50;99.90;;;;;;5072405;28;20236;-84
2022/08/29 04:59:02;;;;;;;5.60;3.88;;;19.50;99.90;;;;;;5072648;28;20197;-84
2022/08/29 05:01:31;;;;;;;4.50;3.83;;;19.50;99.90;;;;;;5072306;28;20233;-84
2022/08/29 05:03:59;;;;;;;14.27;4.20;;;19.50;99.90;;;;;;5073012;28;20209;-84
2022/08/29 05:06:28;;;;;;;5.38;4.20;;;19.50;99.90;;;;;;5072958;28;20289;-84
2022/08/29 05:08:56;;;;;;;3.63;3.33;;;19.50;99.90;;;;;;5072171;28;20209;-84
2022/08/29 05:11:28;;;;;;;3.85;3.45;;;19.50;99.90;;;;;;5072549;28;20220;-84
2022/08/29 05:13:59;;;;;;;4.35;3.85;;;19.50;99.90;;;;;;5072422;28;20223;-84
2022/08/29 05:16:29;;;;;;;4.45;3.83;;;19.50;99.90;;;;;;5072416;28;20243;-84
2022/08/29 05:18:58;;;;;;;6.03;4.50;;;19.50;99.90;;;;;;5072675;28;20205;-84
2022/08/29 05:21:30;;;;;;;3.90;3.60;;;19.50;99.90;;;;;;5072242;28;20275;-84
2022/08/29 05:24:04;;;;;;;6.00;3.85;;;19.50;99.90;;;;;;5072659;28;20215;-84
2022/08/29 05:26:34;;;;;;;3.95;3.50;;;19.50;99.90;;;;;;5072716;28;20265;-84
2022/08/29 05:29:05;;;;;;;5.47;4.00;;;19.50;99.90;;;;;;5072126;28;20280;-84
2022/08/29 05:31:36;;;;;;;3.97;3.58;;;19.50;99.90;;;;;;5072547;28;20224;-85
2022/08/29 05:34:05;;;;;;;5.07;3.88;;;19.50;99.90;;;;;;5072595;28;20219;-84
2022/08/29 05:36:53;;;;;;;6.82;4.90;;;19.60;99.90;;;;;;5071994;28;20205;-83
2022/08/29 05:39:21;;;;;;;4.35;3.95;;;19.50;99.90;;;;;;5071935;28;20293;-84
2022/08/29 05:41:50;;;;;;;4.40;4.00;;;19.50;99.90;;;;;;5071922;28;20328;-84
2022/08/29 05:44:19;;;;;;;6.13;3.63;;;19.60;99.90;;;;;;5071800;28;20265;-84
2022/08/29 05:46:48;;;;;;;4.75;3.53;;;19.60;99.90;;;;;;5072295;28;20219;-84
2022/08/29 05:49:16;;;;;;;5.93;3.75;;;19.60;99.90;;;;;;5071839;28;20205;-84
2022/08/29 05:51:45;;;;;;;7.72;3.70;;;19.70;99.90;;;;;;5072340;28;20305;-84
2022/08/29 05:54:13;;;;;;;4.82;4.05;;;19.80;99.90;;;;;;5071779;28;20287;-84
2022/08/29 05:56:41;;;;;;;5.43;4.07;;;19.70;99.90;;;;;;5072053;28;20244;-84
2022/08/29 05:59:12;;;;;;;4.47;4.10;;;19.80;99.90;;;;;;5072041;28;20274;-85
2022/08/29 06:01:42;;;;;;;4.13;3.25;;;19.90;99.90;;;;;;5072085;28;20229;-84
2022/08/29 06:04:10;;;;;;;5.07;3.88;;;19.90;99.90;;;;;;5075606;28;20268;-84
2022/08/29 06:06:40;;;;;;;5.70;3.75;;;20.00;99.90;;;;;;5075575;28;20269;-84
2022/08/29 06:09:11;;;;;;;7.43;4.50;;;20.10;99.90;;;;;;5075397;28;20219;-84
2022/08/29 06:11:39;;;;;;;8.43;4.47;;;20.00;99.90;;;;;;5075667;28;20304;-84
2022/08/29 06:14:07;;;;;;;4.28;3.88;;;20.10;99.90;;;;;;5075745;28;20296;-84
2022/08/29 06:16:36;;;;;;;5.03;3.60;;;20.10;99.90;;;;;;5075563;28;20225;-84
2022/08/29 06:19:06;;;;;;;4.75;4.03;;;20.10;99.90;;;;;;5075222;28;20209;-84
2022/08/29 06:21:34;;;;;;;4.50;4.00;;;20.20;99.90;;;;;;5074935;28;20316;-84
2022/08/29 06:24:03;;;;;;;4.25;3.85;;;20.20;99.90;;;;;;5075535;28;20224;-84
2022/08/29 06:26:31;;;;;;;4.25;3.85;;;20.20;99.90;;;;;;5075633;28;20209;-84
2022/08/29 06:28:59;;;;;;;4.82;3.60;;;20.30;99.90;;;;;;5075887;28;20224;-84
2022/08/29 06:31:28;;;;;;;5.40;3.83;;;20.30;99.90;;;;;;5075181;28;20396;-84
2022/08/29 06:33:58;;;;;;;4.88;4.07;;;20.30;99.90;;;;;;5075049;28;20217;-84
2022/08/29 06:36:29;;;;;;;5.05;3.88;;;20.30;99.90;;;;;;5075126;28;20274;-84
2022/08/29 06:38:58;;;;;;;4.55;3.85;;;20.30;99.90;;;;;;5074779;28;20205;-84
2022/08/29 06:41:28;;;;;;;6.78;3.65;;;20.40;99.90;;;;;;5075342;28;20279;-84
2022/08/29 06:43:56;;;;;;;6.82;3.95;;;20.40;99.90;;;;;;5074901;28;20209;-84
2022/08/29 06:46:27;;;;;;;3.60;3.30;;;20.40;99.90;;;;;;5074761;28;20296;-84
2022/08/29 06:48:57;;;;;;;4.90;4.43;;;20.40;99.90;;;;;;5074419;28;20255;-84
2022/08/29 06:51:31;;;;;;;15.88;4.57;;;20.50;99.90;;;;;;5074782;28;20346;-84
2022/08/29 06:54:00;;;;;;;5.90;4.00;;;20.50;99.90;;;;;;5074500;28;20209;-84
2022/08/29 06:56:30;;;;;;;4.53;3.90;;;20.60;99.90;;;;;;5074601;28;20205;-84
2022/08/29 06:58:58;;;;;;;4.30;3.90;;;20.70;99.90;;;;;;5074296;28;20288;-84
2022/08/29 07:01:27;;;;;;;4.35;3.20;;;20.80;99.90;;;;;;5074543;28;20233;-84
2022/08/29 07:03:57;;;;;;;6.35;4.20;;;20.90;99.90;;;;;;5074644;28;20208;-84
2022/08/29 07:06:26;;;;;;;5.05;3.88;;;20.80;99.90;;;;;;5074647;28;20208;-84
2022/08/29 07:08:56;;;;;;;4.88;4.18;;;20.80;99.90;;;;;;5074601;28;20226;-84
2022/08/29 07:11:26;;;;;;;5.68;4.75;;;20.70;99.90;;;;;;5074406;28;20221;-84
2022/08/29 07:13:56;;;;;;;5.22;3.38;;;20.80;99.90;;;;;;5073669;28;20273;-84
2022/08/29 07:16:25;;;;;;;4.15;3.75;;;20.70;99.90;;;;;;5074479;28;20260;-85
2022/08/29 07:18:53;;;;;;;6.32;3.95;;;20.70;99.90;;;;;;5074063;28;20296;-84
2022/08/29 07:21:25;;;;;;;6.03;4.28;;;20.80;99.90;;;;;;5074263;28;20229;-84
2022/08/29 07:23:57;;;;;;;4.72;3.97;;;20.90;99.90;;;;;;5074346;28;20288;-84
2022/08/29 07:26:28;;;;;;;4.65;4.13;;;21.00;99.90;;;;;;5090335;28;20232;-84
2022/08/29 07:29:01;;;;;;;4.63;4.03;;;21.20;99.90;;;;;;5092403;28;20189;-85
2022/08/29 07:31:30;;;;;;;5.32;4.22;;;21.30;99.90;;;;;;5074624;28;20233;-84
2022/08/29 07:33:59;;;;;;;4.00;3.60;;;21.40;99.90;;;;;;5074386;28;20276;-84
2022/08/29 07:36:30;;;;;;;4.78;4.20;;;21.50;99.90;;;;;;5074163;28;20227;-84
2022/08/29 07:39:00;;;;;;;8.65;4.05;;;21.50;99.90;;;;;;5074024;28;20204;-84
2022/08/29 07:41:29;;;;;;;5.00;4.03;;;21.60;99.90;;;;;;5073874;28;20316;-84
2022/08/29 07:43:57;;;;;;;5.85;4.15;;;21.70;99.90;;;;;;5073761;28;20310;-84
2022/08/29 07:46:26;;;;;;;4.10;3.50;;;21.90;99.90;;;;;;5073615;28;20205;-84
2022/08/29 07:48:54;;;;;;;6.18;4.25;;;22.00;99.90;;;;;;5073428;28;20234;-84
2022/08/29 07:51:24;;;;;;;4.82;3.47;;;22.20;99.90;;;;;;5073632;28;20320;-84
2022/08/29 07:53:52;;;;;;;7.28;4.20;;;22.40;99.90;;;;;;5073387;28;20205;-84
2022/08/29 07:56:25;;;;;;;4.70;3.67;;;22.60;99.90;;;;;;5073611;28;20205;-84
2022/08/29 07:58:54;;;;;;;4.60;4.20;;;22.70;99.90;;;;;;5073365;28;20235;-83
2022/08/29 08:01:23;;;;;;;8.30;4.60;;;22.90;99.90;;;;;;5073400;28;20217;-83
2022/08/29 08:03:52;;;;;;;4.28;3.70;;;23.10;99.90;;;;;;5073449;28;20206;-83
2022/08/29 08:06:22;;;;;;;4.22;3.83;;;23.20;99.90;;;;;;5073547;28;20224;-84
2022/08/29 08:08:54;;;;;;;3.47;3.17;;;23.20;99.90;;;;;;5073202;28;20209;-84
2022/08/29 08:11:25;;;;;;;4.95;4.00;;;23.00;99.90;;;;;;5073038;28;20319;-84
2022/08/29 08:13:54;;;;;;;5.22;3.50;;;23.00;99.90;;;;;;5073015;28;20235;-83
2022/08/29 08:16:24;;;;;;;6.32;4.47;;;22.90;99.90;;;;;;5073293;28;20272;-84
2022/08/29 08:18:53;;;;;;;5.75;3.80;;;23.00;99.90;;;;;;5073183;28;20288;-84
2022/08/29 08:21:23;;;;;;;5.10;3.90;;;23.20;99.90;;;;;;5072937;28;20308;-84
2022/08/29 08:23:51;;;;;;;3.95;3.40;;;23.50;99.90;;;;;;5072730;28;20225;-83
2022/08/29 08:26:20;;;;;;;3.55;3.25;;;23.70;99.90;;;;;;5072124;28;20212;-84
2022/08/29 08:28:50;;;;;;;3.78;3.13;;;23.90;99.90;;;;;;5072991;28;20287;-84
2022/08/29 08:31:19;;;;;;;3.97;3.25;;;24.40;99.90;;;;;;5073046;28;20209;-84
2022/08/29 08:33:48;;;;;;;4.47;3.35;;;24.90;99.90;;;;;;5073137;28;20219;-83
2022/08/29 08:36:20;;;;;;;5.07;3.60;;;25.00;99.90;;;;;;5072706;28;20276;-83
2022/08/29 08:38:50;;;;;;;3.55;3.25;;;25.50;99.90;;;;;;5072585;28;20205;-83
2022/08/29 08:41:31;;;;;;;3.08;2.72;;;26.10;99.90;;;;;;5073217;28;20212;-83
2022/08/29 08:44:05;;;;;;;9.23;3.10;;;26.50;99.90;;;;;;5072603;28;20235;-83
2022/08/29 08:46:38;;;;;;;3.10;2.80;;;27.10;99.90;;;;;;5072918;28;20236;-83
2022/08/29 08:49:11;;;;;;;4.43;3.67;;;27.40;99.90;;;;;;5072815;28;20204;-83
2022/08/29 08:51:43;;;;;;;2.60;2.40;;;27.90;99.90;;;;;;5072947;28;20300;-82
2022/08/29 08:54:17;;;;;;;2.72;2.53;;;28.20;99.90;;;;;;5072413;28;20283;-83
2022/08/29 08:56:49;;;;;;;7.20;3.20;;;28.60;99.90;;;;;;5072410;28;20203;-83
2022/08/29 08:59:23;;;;;;;2.95;2.75;;;29.20;99.90;;;;;;5072660;28;20207;-83
2022/08/29 09:02:01;;;;;;;4.13;3.17;;;29.60;99.90;;;;;;5072821;28;20305;-84
2022/08/29 09:04:46;;;;;;;2.75;2.55;;;29.40;99.90;;;;;;5072829;28;20209;-83
2022/08/29 09:07:31;;;;;;;3.40;3.10;;;29.50;99.90;;;;;;5072439;28;20281;-83
2022/08/29 09:10:11;;;;;;;3.38;3.08;;;29.90;99.90;;;;;;5072894;28;20264;-83
2022/08/29 09:12:51;;;;;;;5.05;3.03;;;30.00;99.90;;;;;;5072917;28;20272;-84
2022/08/29 09:15:23;;;;;;;3.13;2.80;;;29.70;99.90;;;;;;5072467;28;20296;-82
2022/08/29 09:17:56;;;;;;;2.60;2.50;;;29.40;99.90;;;;;;5072790;28;20291;-84
2022/08/29 09:20:27;;;;;;;3.30;2.78;;;29.50;99.90;;;;;;5072215;28;20208;-84
2022/08/29 09:23:00;;;;;;;3.33;2.97;;;30.00;99.90;;;;;;5072432;28;20225;-84
2022/08/29 09:25:29;;;;;;;3.13;2.80;;;29.80;99.50;;;;;;5072008;28;20264;-84
2022/08/29 09:27:58;;;;;;;4.78;2.85;;;29.60;99.90;;;;;;5072236;28;20204;-83
2022/08/29 09:30:32;;;;;;;3.45;2.92;;;29.30;99.90;;;;;;5072427;28;20209;-84
2022/08/29 09:33:02;;;;;;;4.60;3.47;;;29.00;99.90;;;;;;5072244;28;20229;-84
2022/08/29 09:35:38;;;;;;;2.85;2.63;;;29.30;99.90;;;;;;5072540;28;20287;-83
2022/08/29 09:38:08;;;;;;;3.38;3.08;;;29.40;99.70;;;;;;5074391;28;20208;-83
2022/08/29 09:40:47;;;;;;;3.80;2.83;;;29.60;99.70;;;;;;5075868;28;20222;-83
2022/08/29 09:43:23;;;;;;;2.83;2.63;;;29.80;98.80;;;;;;5075682;28;20312;-84
2022/08/29 09:46:24;;;;;;;4.13;3.10;;;29.80;98.60;;;;;;5075529;28;20203;-83
2022/08/29 09:48:54;;;;;;;3.35;2.72;;;29.80;98.10;;;;;;5013892;28;20237;-83
2022/08/29 09:51:27;;;;;;;4.35;3.35;;;30.00;98.10;;;;;;5063656;28;20225;-83
2022/08/29 09:54:12;;;;;;;5.18;2.90;;;30.60;98.40;;;;;;5075649;28;20208;-84
2022/08/29 09:56:52;;;;;;;3.35;3.05;;;31.50;97.50;;;;;;5075819;28;20210;-83
2022/08/29 09:59:26;;;;;;;3.40;3.10;;;32.00;97.30;;;;;;5075798;28;20204;-83
2022/08/29 10:02:17;;;;;;;3.28;2.97;;;32.80;95.50;;;;;;5076012;28;20228;-84
2022/08/29 10:04:47;;;;;;;3.50;2.88;;;33.00;93.00;;;;;;5075609;28;20292;-83
2022/08/29 10:07:19;;;;;;;2.95;2.45;;;31.70;93.40;;;;;;5075632;28;20214;-83
2022/08/29 10:09:57;;;;;;;2.55;2.33;;;31.30;94.70;;;;;;5075352;28;20201;-84
2022/08/29 10:12:35;;;;;;;2.92;2.70;;;31.40;94.00;;;;;;5075269;28;20320;-83
2022/08/29 10:15:08;;;;;;;3.00;2.80;;;31.50;93.00;;;;;;5075366;28;20295;-84
2022/08/29 10:20:41;;;;;;;2.25;2.10;;;31.90;95.10;;;;;;5075486;28;20290;-83
2022/08/29 10:23:19;;;;;;;3.75;2.85;;;32.60;94.90;;;;;;5075360;28;20224;-84
2022/08/29 10:25:48;;;;;;;2.92;2.72;;;32.80;91.10;;;;;;5075228;28;20208;-84
2022/08/29 10:28:23;;;;;;;2.85;2.65;;;32.80;90.50;;;;;;5075278;28;20200;-84
2022/08/29 10:30:57;;;;;;;2.65;2.45;;;32.90;90.90;;;;;;5075391;28;20207;-83
2022/08/29 10:33:41;;;;;;;2.58;2.35;;;33.00;90.80;;;;;;5074705;28;20208;-84
2022/08/29 10:36:15;;;;;;;2.53;2.33;;;32.90;89.30;;;;;;5075124;28;20241;-84
2022/08/29 10:38:50;;;;;;;2.53;2.33;;;32.50;87.90;;;;;;5075284;28;20243;-84
2022/08/29 10:41:32;;;;;;;2.92;2.33;;;32.70;88.90;;;;;;5075152;28;20208;-83
2022/08/29 10:44:16;;;;;;;4.90;2.67;;;32.60;87.10;;;;;;5074793;28;20252;-84
2022/08/29 10:47:04;;;;;;;2.40;2.20;;;32.60;87.30;;;;;;5083364;28;20246;-84
2022/08/29 10:49:45;;;;;;;2.92;2.67;;;32.60;86.00;;;;;;5092868;28;20217;-83
2022/08/29 10:52:19;;;;;;;2.53;2.33;;;31.90;84.80;;;;;;5077620;28;20232;-84
2022/08/29 10:54:57;;;;;;;2.78;2.35;;;31.90;86.30;;;;;;5075348;28;20200;-84
2022/08/29 10:57:39;;;;;;;2.10;1.90;;;32.00;84.30;;;;;;5075208;28;20205;-83
2022/08/29 11:00:11;;;;;;;2.30;2.10;;;31.80;81.70;;;;;;5075057;28;20292;-83
2022/08/29 11:02:43;;;;;;;3.05;2.45;;;31.70;84.10;;;;;;5074963;28;20239;-84
2022/08/29 11:05:17;;;;;;;5.47;2.80;;;31.90;84.50;;;;;;5074626;28;20301;-83
2022/08/29 11:07:51;;;;;;;3.13;2.33;;;32.20;85.50;;;;;;5074474;28;20283;-83
2022/08/29 11:10:24;;;;;;;2.15;1.98;;;31.90;83.60;;;;;;5074470;28;20310;-83
2022/08/29 11:12:56;;;;;;;2.17;2.05;;;31.90;84.00;;;;;;5074592;28;20244;-83
2022/08/29 11:15:28;;;;;;;2.47;2.15;;;31.90;82.80;;;;;;5074414;28;20232;-83
2022/08/29 11:18:04;;;;;;;2.50;2.30;;;31.80;81.70;;;;;;5074046;28;20293;-83
2022/08/29 11:20:40;;;;;;;3.40;2.58;;;31.90;82.40;;;;;;5074187;28;20291;-83
2022/08/29 11:23:25;;;;;;;3.10;2.42;;;32.20;84.50;;;;;;5074019;28;20225;-83
2022/08/29 11:25:53;;;;;;;2.80;2.60;;;32.60;80.80;;;;;;5074572;28;20284;-83
2022/08/29 11:28:30;;;;;;;2.72;2.53;;;32.40;81.30;;;;;;5074103;28;20293;-83
2022/08/29 11:31:05;;;;;;;2.90;2.00;;;32.90;82.40;;;;;;5074302;28;20235;-83
2022/08/29 11:33:57;;;;;;;3.13;2.70;;;33.20;80.90;;;;;;5074004;28;20286;-82
2022/08/29 11:36:51;;;;;;;5.38;2.40;;;33.40;77.60;;;;;;5073590;28;20193;-83
2022/08/29 11:39:51;;;;;;;2.97;2.13;;;33.40;76.30;;;;;;5073726;28;20205;-83
2022/08/29 11:42:23;;;;;;;2.47;2.28;;;32.70;78.10;;;;;;5073536;28;20313;-83
2022/08/29 11:45:21;;;;;;;2.83;2.50;;;32.70;76.80;;;;;;5073495;28;20217;-82
2022/08/29 11:48:01;;;;;;;2.40;2.20;;;32.50;76.90;;;;;;5073712;28;20208;-82
2022/08/29 11:50:33;;;;;;;1.88;1.77;;;32.20;76.40;;;;;;5073287;28;20215;-82
2022/08/29 11:53:09;;;;;;;4.13;2.22;;;32.30;76.40;;;;;;5073074;28;20225;-83
2022/08/29 11:55:39;;;;;;;2.33;2.13;;;32.10;76.70;;;;;;5073596;28;20201;-83
2022/08/29 11:58:43;;;;;;;3.83;2.55;;;32.40;78.30;;;;;;5073208;28;20205;-82
2022/08/29 12:01:51;;;;;;;2.88;2.35;;;33.00;74.50;;;;;;5073396;28;20212;-82
2022/08/29 12:04:53;;;;;;;2.88;2.20;;;33.40;76.70;;;;;;5072912;28;20233;-82
2022/08/29 12:07:33;;;;;;;8.13;2.17;;;33.40;73.10;;;;;;5073379;28;20287;-82
2022/08/29 12:10:07;;;;;;;2.45;2.25;;;33.40;72.30;;;;;;5072911;28;20300;-83
2022/08/29 12:12:45;;;;;;;2.08;1.98;;;33.30;71.50;;;;;;5073048;28;20231;-82
2022/08/29 12:15:52;;;;;;;4.05;2.55;;;33.20;71.20;;;;;;5073547;28;20223;-82
2022/08/29 12:18:46;;;;;;;2.05;1.73;;;33.20;70.90;;;;;;5072697;28;20212;-82
2022/08/29 12:21:46;;;;;;;2.67;2.33;;;33.50;72.80;;;;;;5063170;28;20296;-82
2022/08/29 12:24:45;;;;;;;2.03;1.88;;;34.20;72.30;;;;;;5072517;28;20244;-82
2022/08/29 12:28:04;;;;;;;3.50;2.15;;;34.60;66.50;;;;;;5011199;28;20298;-82
2022/08/29 12:30:38;;;;;;;1.63;1.52;;;34.70;65.10;;;;;;5072601;28;20232;-82
2022/08/29 12:33:21;;;;;;;2.22;2.03;;;34.60;66.00;;;;;;5072824;28;20236;-83
2022/08/29 12:36:07;;;;;;;2.55;2.35;;;34.50;67.70;;;;;;5072486;28;20209;-82
2022/08/29 12:38:48;;;;;;;3.63;2.38;;;34.30;69.10;;;;;;5072150;28;20211;-83
2022/08/29 12:41:33;;;;;;;1.80;1.70;;;34.40;66.40;;;;;;5073019;28;20197;-82
2022/08/29 12:44:07;;;;;;;3.10;2.13;;;33.50;65.80;;;;;;5072519;28;20299;-82
2022/08/29 12:46:40;;;;;;;2.25;2.05;;;32.60;67.50;;;;;;5072407;28;20268;-82
2022/08/29 12:49:18;;;;;;;2.00;1.90;;;32.40;68.70;;;;;;5072344;28;20209;-82
2022/08/29 12:51:50;;;;;;;2.63;2.35;;;32.60;70.00;;;;;;5072493;28;20303;-82
2022/08/29 12:54:31;;;;;;;2.38;2.17;;;32.40;70.90;;;;;;5072261;28;20201;-82
2022/08/29 12:57:00;;;;;;;3.45;2.25;;;32.60;71.70;;;;;;5072757;28;20201;-82
2022/08/29 12:59:30;;;;;;;2.45;2.17;;;32.90;74.00;;;;;;5072192;28;20205;-82
2022/08/29 13:01:59;;;;;;;2.20;2.08;;;33.30;71.50;;;;;;5072498;28;20225;-82
2022/08/29 13:04:32;;;;;;;3.30;2.28;;;33.40;69.30;;;;;;5072385;28;20298;-82
2022/08/29 13:07:03;;;;;;;2.78;2.08;;;32.80;68.40;;;;;;5072144;28;20200;-82
2022/08/29 13:09:34;;;;;;;2.20;2.00;;;32.30;69.40;;;;;;5072342;28;20284;-82
2022/08/29 13:12:14;;;;;;;2.15;2.03;;;32.00;70.10;;;;;;5072778;28;20308;-82
2022/08/29 13:14:57;;;;;;;2.25;2.00;;;31.90;70.30;;;;;;5076379;28;20211;-82
2022/08/29 13:17:28;;;;;;;2.40;2.20;;;31.90;70.60;;;;;;5076268;28;20211;-82
2022/08/29 13:20:33;;;;;;;2.72;2.03;;;31.80;70.60;;;;;;5076222;28;20272;-82